John Young

Olheiro - Norwich City
5 Dez 2027
Domingo
Processo

Personalidade

Adaptabilidade (13) Ambição (18) Controvérsia (9) Lealdade (12) Pressão (15) Profissionalismo (19) Espírito Esportivo (9) Temperamento (3)

Perfil

Estilo de Treinamento Democrático
Licença Nacional B
Determinação 7
Gestão de Pessoas 13
Motivação 10
Disciplina 7
Satisfação no Trabalho
100%
Fadiga
0%
Função Olheiro
Salário 74.2K p/s
Contrato 14.03.2028

Desempenho

Comportamento Bom
Eficácia do Treinamento
40%
Desenvolvimento do Jogador
20%
Prevenção de Lesões
30%
Implementação Tática
30%

Monitorando agora

150
Jogador Clube Status Habilidade Confiança Observado Última observação Último voto
Wisdom Udom Bendel Insurance Ativo 89 / 88 40% 2 31.08.2027 -
Ramiro Jara Racing Ativo 90 / 94 40% 2 31.08.2027 -
Jude Terry Los Angeles Football Club Ativo 94 / 103 40% 1 30.08.2027 -
Mikkel Hope Sarpsborg 08 Ativo 94 / 104 40% 1 30.08.2027 -
Peyton Miller FC Cincinnati Ativo 104 / 106 40% 1 30.08.2027 -
Julián Bazán New York Red Bulls Ativo 108 / 116 40% 8 29.08.2027 -
Alejo Fernández Temperley Ativo 100 / 97 40% 5 29.08.2027 -
Kaick FC Dallas Ativo 109 / 105 40% 4 29.08.2027 -
Hassan Beja AFC Leopards Ativo 87 / 84 40% 4 26.08.2027 -
Yury Oyarzo Racing Ativo 96 / 98 40% 1 26.08.2027 -
Matías Acevedo Racing Club Ativo 101 / 113 40% 1 26.08.2027 -
Santos Torrealba Portuguesa Ativo 92 / 91 40% 1 25.08.2027 -
Geovany Quenda Chelsea Ativo 143 / 156 40% 1 25.08.2027 -
David Vazquez San Diego Football Club Ativo 91 / 102 40% 1 24.08.2027 -
Vadim Arutyunyan Dnepr Mogilev Ativo 89 / 103 40% 1 24.08.2027 -
Henadii Synchuk CF Montreal Ativo 98 / 108 40% 1 24.08.2027 -
Pau Cubarsí Barcelona Ativo 156 / 169 40% 1 23.08.2027 -
Ulises Giménez River Plate Ativo 105 / 106 40% 1 23.08.2027 -
Keita Kosugi Eintracht Frankfurt Ativo 131 / 136 40% 1 23.08.2027 -
Juan Giménez Rosario Central Ativo 124 / 134 40% 1 22.08.2027 -
Thato Sibiya Mamelodi Sundowns Ativo 102 / 109 40% 1 22.08.2027 -
Andy Rojas New York Red Bulls Ativo 106 / 98 40% 1 20.08.2027 -
David Chinagorom Abia Warriors Ativo 79 / 87 40% 1 20.08.2027 -
Leonel Jaime River Plate Ativo 116 / 116 40% 1 20.08.2027 -
Gift Udoh Ikorodu City Ativo 80 / 83 40% 1 20.08.2027 -
Tyler Hall Inter Miami CF Ativo 88 / 100 40% 1 20.08.2027 -
Elias Baum Eintracht Frankfurt Ativo 131 / 135 40% 1 20.08.2027 -
Noah Streit CF Montreal Ativo 112 / 107 40% 5 16.08.2027 -
Andrija Maksimović VfL Wolfsburg Ativo 126 / 134 40% 1 16.08.2027 -
Gustavo Albarracín Alavés Ativo 113 / 129 40% 4 15.08.2027 -
Don-Angelo Konadu Ajax Ativo 111 / 118 40% 1 15.08.2027 -
Alexis Orellano San Telmo Ativo 95 / 97 40% 1 15.08.2027 -
Alexis Fretes Libertad Ativo 109 / 122 40% 3 13.08.2027 -
Gaku Nawata Gamba Osaka Ativo 103 / 112 40% 3 13.08.2027 -
Ravshan Xayrullayev Bukhara Ativo 99 / 90 40% 1 13.08.2027 -
Deago Nelson Casa Pia Ativo 86 / 94 40% 1 13.08.2027 -
Sheriff Amuda Shooting Stars Ativo 93 / 94 40% 2 11.08.2027 -
Tiago Gordillo San Miguel Ativo 94 / 96 40% 4 11.08.2027 -
Edoardo Cuel Virtus Verona Ativo 84 / 88 40% 2 11.08.2027 -
Siphesihle Sithole Afrique Foot Elite Ativo 92 / 87 40% 1 11.08.2027 -
Adam Boufandar Pro Vercelli Ativo 91 / 97 40% 1 11.08.2027 -
Enzo Cardozo Defensa y Justicia Ativo 114 / 125 40% 1 10.08.2027 -
Santiago Ruiz Alvarado Ativo 82 / 91 40% 1 10.08.2027 -
Sascha Britschgi Udinese Ativo 120 / 133 40% 4 09.08.2027 -
Josh Laqeretabua Charlton Athletic Ativo 93 / 107 40% 1 09.08.2027 -
Emiliano Bértoli Patronato Ativo 86 / 109 40% 1 09.08.2027 -
Conrado Martínez Ferro Carril Oeste Ativo 87 / 104 40% 1 05.08.2027 -
Martim Cunha Porto Ativo 104 / 121 40% 4 04.08.2027 -
Alejandro Leiva Almería Ativo 99 / 112 40% 2 04.08.2027 -
Juan Manuel Villalba Estudiantes Ativo 122 / 111 40% 2 04.08.2027 -
Juan José Cataño Envigado Ativo 87 / 105 40% 2 04.08.2027 -
Mateo Rodríguez Estudiantes Ativo 81 / 97 40% 2 04.08.2027 -
Othmane Maamma Watford Ativo 123 / 124 40% 1 03.08.2027 -
Ibrahim Sabiu Bendel Insurance Ativo 92 / 104 40% 3 02.08.2027 -
Craig Forsyth Derby County Perdido 112 / 117 79% 1 02.08.2027 Aprovar
Mateo Ostachi Alvarado Ativo 98 / 88 40% 1 02.08.2027 -
Olaniyi Saheed Kwara United Ativo 86 / 88 40% 1 01.08.2027 -
Yasin Özcan Aston Villa Ativo 113 / 116 40% 1 01.08.2027 -
Joyeux Masanka Bungi RB Leipzig Ativo 101 / 103 40% 1 01.08.2027 -
Archie Whitehall Northampton Town Ativo 92 / 87 40% 1 31.07.2027 -
Josh Stephenson Brentford Ativo 115 / 125 40% 1 31.07.2027 -
Dennis Konney US Bougouba Ativo 74 / 80 40% 3 29.07.2027 -
Elias Lenz St. Pauli Ativo 97 / 108 40% 1 28.07.2027 -
David Linarez Trujillanos Ativo 77 / 87 40% 2 27.07.2027 -
Cristiano Oliveira New England Revolution Ativo 93 / 100 40% 1 26.07.2027 -
Ollie Scarles West Ham United Ativo 134 / 146 40% 1 26.07.2027 -
Lucas Velásquez Huachipato Ativo 96 / 88 40% 1 25.07.2027 -
Ahmad Lamido Wikki Tourists Ativo 80 / 102 40% 2 24.07.2027 -
Joel Medina Osasuna Ativo 117 / 117 40% 2 23.07.2027 -
Álex Marchal Real Sociedad Ativo 110 / 123 40% 2 23.07.2027 -
Luighi Palmeiras Ativo 106 / 118 40% 1 23.07.2027 -
Nazareno Roselli Defensa y Justicia Ativo 116 / 121 40% 2 22.07.2027 -
Ignacio Pérez Universidad Catolica Ativo 102 / 89 40% 2 22.07.2027 -
Rafik el Arguioui Utrecht Ativo 109 / 118 40% 1 22.07.2027 -
Enzo Tacafred AS Nancy Ativo 107 / 112 40% 2 20.07.2027 -
Ichem Ferrah Pisa Ativo 113 / 125 40% 1 20.07.2027 -
Ian Wisdom Sporting Cristal Ativo 94 / 105 40% 2 18.07.2027 -
Bruno Alves Cruzeiro Ativo 101 / 103 40% 1 17.07.2027 -
Maximilian Baumgartner Mattersburg Ativo 96 / 105 40% 1 12.07.2027 -
Adam Wierzbicki Khimik Ativo 87 / 76 40% 1 12.07.2027 -
Luka Handanovic NK Domzale Ativo 107 / 97 40% 1 12.07.2027 -
Eric da Silva Moreira Nottingham Forest Ativo 124 / 127 40% 1 12.07.2027 -
Lautaro Millán Independiente Ativo 123 / 119 40% 3 10.07.2027 -
Théo Hansen Hobro Ativo 84 / 99 40% 1 10.07.2027 -
Josh Davidson Córdoba Ativo 90 / 104 40% 3 08.07.2027 -
Isaac Smith Stade Brestois Ativo 102 / 101 40% 1 08.07.2027 -
Axel Tape TSG Hoffenheim Ativo 132 / 142 40% 1 07.07.2027 -
Nathan Tinsdale Jihlava Ativo 97 / 92 40% 1 07.07.2027 -
Isaiah Dada-Mascoll Zbrojovka Brno Ativo 100 / 102 40% 1 05.07.2027 -
Pedro Manoel Tammeka Ativo 94 / 82 40% 1 05.07.2027 -
Mads Abrahamsen Druzhba Ativo 85 / 98 40% 1 05.07.2027 -
Augusto Bando Ascoli Ativo 102 / 109 40% 4 04.07.2027 -
Paulo Cardoso Sporting CP Ativo 94 / 108 40% 1 04.07.2027 -
Hervé Berger Tours Ativo 93 / 111 40% 1 02.07.2027 -
Odia Uyiosa Bendel Insurance Ativo 77 / 75 40% 1 01.07.2027 -
Louis Jackson AEL Larisa Ativo 98 / 97 40% 1 30.06.2027 -
Maxim Radchenko Rostov Ativo 77 / 91 40% 1 28.06.2027 -
Nikolay Sotnikov Arsenal Dzerzhinsk Ativo 80 / 85 40% 1 28.06.2027 -
Luis Díaz Depor Ativo 91 / 77 40% 2 27.06.2027 -
Mohamed Bolivar Barranquilla Ativo 80 / 80 40% 2 27.06.2027 -
Zakaria Taifi Orlando City Ativo 95 / 99 40% 1 26.06.2027 -
Gustavo Caraballo Orlando City Ativo 89 / 81 40% 1 26.06.2027 -
Alejandro Cardona Leones Ativo 84 / 98 40% 1 24.06.2027 -
Facundo Infante Talleres Ativo 96 / 95 40% 1 22.06.2027 -
Santino Baldassarri Quilmes Ativo 83 / 88 40% 1 21.06.2027 -
Sergey Chernov Zenit Ativo 80 / 94 40% 1 20.06.2027 -
Mohamed Moussa Koïta Persijap Ativo 103 / 103 40% 1 16.06.2027 -
Jayden Spier Willem II Ativo 102 / 103 40% 1 16.06.2027 -
Jamie Wähling Marsaxlokk Ativo 85 / 81 40% 2 12.06.2027 -
Habeeb Ogunneye Exeter City Ativo 95 / 98 40% 1 12.06.2027 -
Jonathan Bland Barnsley Ativo 104 / 107 40% 1 12.06.2027 -
Salvador Blopá Sporting CP Ativo 115 / 128 40% 1 10.06.2027 -
Isaac England Shrewsbury Town Ativo 94 / 95 40% 1 10.06.2027 Mais informações
Lucas Jetten Cambuur Ativo 107 / 118 40% 1 09.06.2027 -
Harrison Bettoni Wigan Athletic Ativo 98 / 104 40% 1 09.06.2027 -
Ethan Williams Peterborough United Ativo 110 / 113 40% 1 09.06.2027 -
Jacopo Bacci Sorrento Ativo 97 / 113 40% 1 07.06.2027 -
Izan Merino Málaga Ativo 121 / 128 40% 1 07.06.2027 -
Nikita Posmashny Chaika Ativo 93 / 81 40% 1 06.06.2027 -
Cundo Leicester City Ativo 122 / 128 40% 1 01.06.2027 -
Yegor Gulyaev Chaika Ativo 83 / 101 40% 1 01.06.2027 -
Perry Ng Cardiff City Ativo 125 / 121 40% 1 28.01.2027 -
Arsen Adamov Akhmat Grozny Ativo 116 / 133 40% 1 28.01.2027 -
Yohann Magnin CSKA 1948 Ativo 116 / 129 40% 1 28.01.2027 -
Aubrey Modiba Mamelodi Sundowns Ativo 129 / 118 40% 3 26.01.2027 -
Eoin Toal Bolton Wanderers Ativo 117 / 118 40% 1 26.01.2027 -
Teden Mengi Luton Town Ativo 125 / 132 40% 1 26.01.2027 -
Ali McCann Preston Rejeitado 117 / 126 40% 1 25.01.2027 Mais informações
Keaton Parks New York City Rejeitado 126 / 137 40% 1 25.01.2027 Mais informações
Ilias Bronkhorst Huddersfield Town Ativo 110 / 125 40% 1 23.01.2027 -
Douglas Augusto Krasnodar Ativo 123 / 119 40% 1 23.01.2027 -
Hlompho Mphela SuperSport United Ativo 130 / 131 40% 1 23.01.2027 -
Joseph Aidoo ES Setif Ativo 121 / 142 40% 1 22.01.2027 -
Alexandr Chernikov Krasnodar Ativo 123 / 123 40% 1 17.01.2027 -
Sergi Palencia Los Angeles Football Club Ativo 138 / 132 40% 1 17.01.2027 -
Calum Chambers Cardiff City Ativo 118 / 109 40% 1 12.01.2027 -
Kortney Hause Coventry City Ativo 123 / 116 40% 1 12.01.2027 -
Moisés CSKA Moscow Ativo 139 / 132 40% 1 12.01.2027 -
Owen Wolff Austin FC Ativo 97 / 116 40% 2 21.08.2026 -
Aleksa Cvetković Vancouver Whitecaps Ativo 100 / 95 40% 2 21.08.2026 -
Themba Tau Ajax Cape Town Ativo 101 / 104 40% 1 21.08.2026 -
Relebohile Mofokeng Orlando Pirates Ativo 105 / 123 40% 1 20.08.2026 -
Alex Harris Colorado Rapids Ativo 99 / 95 40% 1 19.08.2026 -
Luke Baartman Bidvest Wits Ativo 112 / 103 40% 1 19.08.2026 -
Mfundo Vilakazi Kaizer Chiefs Ativo 121 / 122 40% 1 16.08.2026 -
Andile Furman Free State Stars Ativo 96 / 98 40% 1 15.08.2026 -
Amin Boudri Los Angeles Football Club Ativo 133 / 137 40% 1 15.08.2026 -
Darren Yapi Colorado Rapids Ativo 98 / 104 40% 1 07.08.2026 -
Ilay Feingold New England Revolution Ativo 112 / 110 40% 1 03.08.2026 -
Leonardo Barroso Chicago Fire Ativo 98 / 114 40% 1 02.08.2026 -